createdAt,value
2022-10-21T00:00:58.961Z,15.18
2022-10-21T00:03:27.700Z,15.19
2022-10-21T00:05:55.337Z,15.21
2022-10-21T00:08:23.507Z,15.20
2022-10-21T00:10:57.942Z,15.22
2022-10-21T00:13:27.868Z,15.22
2022-10-21T00:16:18.272Z,15.20
2022-10-21T00:18:47.749Z,15.20
2022-10-21T00:21:21.193Z,15.18
2022-10-21T00:23:50.035Z,15.14
2022-10-21T00:26:18.872Z,15.12
2022-10-21T00:28:46.073Z,15.09
2022-10-21T00:31:16.437Z,15.06
2022-10-21T00:33:43.714Z,15.06
2022-10-21T00:36:15.498Z,15.04
2022-10-21T00:38:49.545Z,15.04
2022-10-21T00:41:20.172Z,15.04
2022-10-21T00:44:01.985Z,15.08
2022-10-21T00:47:12.065Z,15.05
2022-10-21T00:49:58.542Z,15.03
2022-10-21T00:52:26.526Z,15.05
2022-10-21T00:54:58.461Z,15.05
2022-10-21T00:57:27.336Z,15.05
2022-10-21T01:00:00.339Z,15.03
2022-10-21T01:02:29.277Z,15.02
2022-10-21T01:05:01.553Z,15.07
2022-10-21T01:07:29.012Z,15.10
2022-10-21T01:09:56.105Z,15.12
2022-10-21T01:13:39.003Z,15.13
2022-10-21T01:16:33.385Z,15.16
2022-10-21T01:19:34.837Z,15.19
2022-10-21T01:22:50.271Z,15.20
2022-10-21T01:26:03.575Z,15.15
2022-10-21T01:28:48.536Z,15.14
2022-10-21T01:31:38.175Z,15.15
2022-10-21T01:34:41.468Z,15.15
2022-10-21T01:38:13.914Z,15.14
2022-10-21T01:41:01.546Z,15.16
2022-10-21T01:43:55.523Z,15.15
2022-10-21T01:46:49.100Z,15.13
2022-10-21T01:49:42.694Z,15.14
2022-10-21T01:52:12.443Z,15.11
2022-10-21T01:54:45.976Z,15.09
2022-10-21T01:57:18.747Z,15.09
2022-10-21T01:59:46.554Z,15.13
2022-10-21T02:02:15.965Z,15.19
2022-10-21T02:04:44.741Z,15.21
2022-10-21T02:07:11.960Z,15.20
2022-10-21T02:09:39.194Z,15.21
2022-10-21T02:12:07.729Z,15.20
2022-10-21T02:14:46.455Z,15.21
2022-10-21T02:17:21.767Z,15.22
2022-10-21T02:19:49.078Z,15.22
2022-10-21T02:22:21.755Z,15.26
2022-10-21T02:25:30.119Z,15.26
2022-10-21T02:27:57.589Z,15.20
2022-10-21T02:30:25.163Z,15.21
2022-10-21T02:33:11.372Z,15.30
2022-10-21T02:35:54.813Z,15.30
2022-10-21T02:38:44.141Z,15.29
2022-10-21T02:41:16.549Z,15.37
2022-10-21T02:44:01.739Z,15.35
2022-10-21T02:46:42.902Z,15.31
2022-10-21T02:49:10.538Z,15.33
2022-10-21T02:51:37.850Z,15.35
2022-10-21T02:54:05.159Z,15.36
2022-10-21T02:56:32.377Z,15.36
2022-10-21T02:58:59.496Z,15.36
2022-10-21T03:01:27.146Z,15.35
2022-10-21T03:03:54.601Z,15.31
2022-10-21T03:06:21.731Z,15.28
2022-10-21T03:08:48.866Z,15.31
2022-10-21T03:11:16.068Z,15.31
2022-10-21T03:13:43.217Z,15.29
2022-10-21T03:16:10.358Z,15.30
2022-10-21T03:18:37.611Z,15.30
2022-10-21T03:21:05.025Z,15.30
2022-10-21T03:23:32.204Z,15.32
2022-10-21T03:25:59.357Z,15.35
2022-10-21T03:28:26.613Z,15.37
2022-10-21T03:30:55.220Z,15.35
2022-10-21T03:33:22.412Z,15.32
2022-10-21T03:35:49.761Z,15.32
2022-10-21T03:38:16.958Z,15.27
2022-10-21T03:40:44.138Z,15.28
2022-10-21T03:43:11.416Z,15.29
2022-10-21T03:45:38.626Z,15.27
2022-10-21T03:48:05.962Z,15.24
2022-10-21T03:50:33.241Z,15.22
2022-10-21T03:53:01.182Z,15.19
2022-10-21T03:55:31.485Z,15.15
2022-10-21T03:57:58.621Z,15.17
2022-10-21T04:00:27.177Z,15.15
2022-10-21T04:02:56.863Z,15.13
2022-10-21T04:05:24.017Z,15.12
2022-10-21T04:07:53.135Z,15.12
2022-10-21T04:10:21.263Z,15.14
2022-10-21T04:12:48.549Z,15.10
2022-10-21T04:15:15.974Z,15.17
2022-10-21T04:17:46.880Z,15.14
2022-10-21T04:20:14.420Z,15.12
2022-10-21T04:22:41.770Z,15.12
2022-10-21T04:25:09.344Z,15.14
2022-10-21T04:27:36.537Z,15.13
2022-10-21T04:30:04.555Z,15.16
2022-10-21T04:32:31.678Z,15.20
2022-10-21T04:34:58.801Z,15.23
2022-10-21T04:37:26.009Z,15.29
2022-10-21T04:39:53.164Z,15.31
2022-10-21T04:42:20.374Z,15.33
2022-10-21T04:44:47.633Z,15.35
2022-10-21T04:47:15.109Z,15.38
2022-10-21T04:49:42.320Z,15.41
2022-10-21T04:52:09.572Z,15.42
2022-10-21T04:54:36.818Z,15.41
2022-10-21T04:57:04.002Z,15.40
2022-10-21T04:59:31.589Z,15.42
2022-10-21T05:01:58.837Z,15.44
2022-10-21T05:04:26.165Z,15.45
2022-10-21T05:06:53.289Z,15.43
2022-10-21T05:09:20.688Z,15.44
2022-10-21T05:11:47.923Z,15.43
2022-10-21T05:14:17.627Z,15.44
2022-10-21T05:16:47.210Z,15.45
2022-10-21T05:19:14.452Z,15.45
2022-10-21T05:21:41.730Z,15.44
2022-10-21T05:24:09.212Z,15.43
2022-10-21T05:26:36.352Z,15.41
2022-10-21T05:29:03.512Z,15.43
2022-10-21T05:31:30.763Z,15.42
2022-10-21T05:33:58.113Z,15.43
2022-10-21T05:36:25.644Z,15.47
2022-10-21T05:38:53.740Z,15.44
2022-10-21T05:41:21.117Z,15.46
2022-10-21T05:43:48.367Z,15.44
2022-10-21T05:46:15.657Z,15.43
2022-10-21T05:48:42.877Z,15.42
2022-10-21T05:51:10.051Z,15.43
2022-10-21T05:53:37.350Z,15.40
2022-10-21T05:56:08.075Z,15.40
2022-10-21T05:58:36.228Z,15.43
2022-10-21T06:01:03.862Z,15.45
2022-10-21T06:03:33.543Z,15.45
2022-10-21T06:06:04.997Z,15.44
2022-10-21T06:08:35.642Z,15.43
2022-10-21T06:11:14.324Z,15.39
2022-10-21T06:13:42.012Z,15.40
2022-10-21T06:16:11.847Z,15.41
2022-10-21T06:18:41.114Z,15.38
2022-10-21T06:21:09.932Z,15.38
2022-10-21T06:23:37.505Z,15.39
2022-10-21T06:26:13.109Z,15.38
2022-10-21T06:28:42.073Z,15.40
2022-10-21T06:31:14.500Z,15.43
2022-10-21T06:33:42.117Z,15.41
2022-10-21T06:36:10.041Z,15.43
2022-10-21T06:38:38.217Z,15.46
2022-10-21T06:41:13.152Z,15.49
2022-10-21T06:43:42.478Z,15.53
2022-10-21T06:46:15.510Z,15.55
2022-10-21T06:48:43.328Z,15.57
2022-10-21T06:51:19.692Z,15.62
2022-10-21T06:53:52.008Z,15.60
2022-10-21T06:56:20.321Z,15.62
2022-10-21T06:58:49.655Z,15.64
2022-10-21T07:01:34.974Z,15.66
2022-10-21T07:04:10.295Z,15.68
2022-10-21T07:06:37.957Z,15.69
2022-10-21T07:09:07.960Z,15.67
2022-10-21T07:11:35.919Z,15.69
2022-10-21T07:14:03.266Z,15.70
2022-10-21T07:16:35.101Z,15.72
2022-10-21T07:19:03.657Z,15.72
2022-10-21T07:21:32.005Z,15.72
2022-10-21T07:24:00.724Z,15.74
2022-10-21T07:26:32.267Z,15.72
2022-10-21T07:29:00.931Z,15.75
2022-10-21T07:31:32.852Z,15.72
2022-10-21T07:34:01.814Z,15.71
2022-10-21T07:36:34.050Z,15.77
2022-10-21T07:39:08.829Z,15.79
2022-10-21T07:41:44.407Z,15.77
2022-10-21T07:44:11.869Z,15.77
2022-10-21T07:46:44.270Z,15.79
2022-10-21T07:49:13.205Z,15.81
2022-10-21T07:51:41.301Z,15.82
2022-10-21T07:54:08.942Z,15.83
2022-10-21T07:56:42.120Z,15.83
2022-10-21T07:59:13.187Z,15.88
2022-10-21T08:01:47.303Z,15.93
2022-10-21T08:04:21.867Z,15.94
2022-10-21T08:06:49.650Z,15.98
2022-10-21T08:09:17.687Z,15.99
2022-10-21T08:11:45.371Z,16.02
2022-10-21T08:14:13.459Z,16.07
2022-10-21T08:16:41.637Z,16.11
2022-10-21T08:19:17.557Z,16.08
2022-10-21T08:21:44.709Z,16.15
2022-10-21T08:24:11.993Z,16.20
2022-10-21T08:26:39.224Z,16.20
2022-10-21T08:29:06.617Z,16.25
2022-10-21T08:31:33.854Z,16.26
2022-10-21T08:34:01.221Z,16.28
2022-10-21T08:36:28.423Z,16.29
2022-10-21T08:38:55.740Z,16.23
2022-10-21T08:41:28.895Z,16.22
2022-10-21T08:44:26.105Z,16.27
2022-10-21T08:47:25.113Z,16.33
2022-10-21T08:50:06.208Z,16.37
2022-10-21T08:53:00.469Z,16.46
2022-10-21T08:55:41.611Z,16.42
2022-10-21T08:58:22.254Z,16.35
2022-10-21T09:01:14.944Z,16.29
2022-10-21T09:03:48.339Z,16.31
2022-10-21T09:06:34.541Z,16.37
2022-10-21T09:09:10.531Z,16.35
2022-10-21T09:12:22.798Z,16.48
2022-10-21T09:15:10.426Z,16.58
2022-10-21T09:17:42.006Z,16.66
2022-10-21T09:20:34.301Z,16.68
2022-10-21T09:23:53.291Z,16.72
2022-10-21T09:26:37.380Z,16.79
2022-10-21T09:29:41.244Z,16.86
2022-10-21T09:32:28.085Z,16.79
2022-10-21T09:35:35.250Z,16.85
2022-10-21T09:38:32.633Z,16.84
2022-10-21T09:41:03.374Z,16.86
2022-10-21T09:43:31.414Z,16.91
2022-10-21T09:45:59.035Z,16.94
2022-10-21T09:49:16.343Z,16.89
2022-10-21T09:51:38.987Z,16.83
2022-10-21T09:54:22.991Z,16.88
2022-10-21T09:57:13.012Z,16.86
2022-10-21T09:59:58.720Z,16.86
2022-10-21T10:02:36.743Z,16.89
2022-10-21T10:05:47.884Z,16.91
2022-10-21T10:08:29.186Z,17.01
2022-10-21T10:11:11.689Z,17.00
2022-10-21T10:13:50.436Z,17.00
2022-10-21T10:16:29.793Z,17.07
2022-10-21T10:19:20.458Z,17.15
2022-10-21T10:22:10.300Z,17.15
2022-10-21T10:24:40.684Z,17.13
2022-10-21T10:27:26.619Z,17.19
2022-10-21T10:29:58.637Z,17.20
2022-10-21T10:32:32.545Z,17.15
2022-10-21T10:35:04.993Z,17.10
2022-10-21T10:37:36.957Z,17.13
2022-10-21T10:40:09.199Z,17.15
2022-10-21T10:42:44.770Z,17.11
2022-10-21T10:45:20.362Z,17.10
2022-10-21T10:48:03.175Z,17.15
2022-10-21T10:50:49.257Z,17.16
2022-10-21T10:53:37.809Z,17.23
2022-10-21T10:56:39.985Z,17.26
2022-10-21T10:59:34.154Z,17.33
2022-10-21T11:02:10.116Z,17.44
2022-10-21T11:05:28.662Z,17.53
2022-10-21T11:08:04.681Z,17.58
2022-10-21T11:10:47.697Z,17.58
2022-10-21T11:13:19.970Z,17.61
2022-10-21T11:16:50.464Z,17.66
2022-10-21T11:19:57.206Z,17.65
2022-10-21T11:23:27.850Z,17.53
2022-10-21T11:26:25.465Z,17.54
2022-10-21T11:29:23.629Z,17.50
2022-10-21T11:32:21.597Z,17.48
2022-10-21T11:35:48.288Z,17.51
2022-10-21T11:38:48.553Z,17.52
2022-10-21T11:41:45.603Z,17.50
2022-10-21T11:44:39.762Z,17.48
2022-10-21T11:47:44.537Z,17.52
2022-10-21T11:50:34.781Z,17.44
2022-10-21T11:53:46.102Z,17.49
2022-10-21T11:56:38.429Z,17.54
2022-10-21T12:00:10.762Z,17.60
2022-10-21T12:03:11.319Z,17.57
2022-10-21T12:05:55.550Z,17.70
2022-10-21T12:08:41.204Z,17.78
2022-10-21T12:11:20.849Z,17.76
2022-10-21T12:14:36.354Z,17.69
2022-10-21T12:17:12.979Z,17.65
2022-10-21T12:19:41.050Z,17.63
2022-10-21T12:22:11.032Z,17.55
2022-10-21T12:24:58.393Z,17.55
2022-10-21T12:28:34.612Z,17.58
2022-10-21T12:31:26.913Z,17.52
2022-10-21T12:33:54.703Z,17.52
2022-10-21T12:36:25.581Z,17.56
2022-10-21T12:38:55.293Z,17.60
2022-10-21T12:41:36.701Z,17.65
2022-10-21T12:44:05.484Z,17.66
2022-10-21T12:47:01.906Z,17.74
2022-10-21T12:49:35.886Z,17.79
2022-10-21T12:52:02.873Z,17.95
2022-10-21T12:54:41.414Z,17.94
2022-10-21T12:57:23.847Z,17.82
2022-10-21T12:59:51.074Z,17.78
2022-10-21T13:02:28.283Z,17.75
2022-10-21T13:04:57.437Z,17.73
2022-10-21T13:07:31.665Z,17.76
2022-10-21T13:09:58.624Z,17.70
2022-10-21T13:12:29.260Z,17.71
2022-10-21T13:15:21.949Z,17.68
2022-10-21T13:17:57.709Z,17.59
2022-10-21T13:20:24.720Z,17.59
2022-10-21T13:23:03.576Z,17.56
2022-10-21T13:25:36.160Z,17.53
2022-10-21T13:28:13.554Z,17.53
2022-10-21T13:30:59.921Z,17.49
2022-10-21T13:33:38.515Z,17.49
2022-10-21T13:36:14.238Z,17.48
2022-10-21T13:38:51.426Z,17.44
2022-10-21T13:41:29.349Z,17.44
2022-10-21T13:44:07.346Z,17.44
2022-10-21T13:46:43.558Z,17.45
2022-10-21T13:49:51.364Z,17.42
2022-10-21T13:52:18.791Z,17.42
2022-10-21T13:54:46.286Z,17.40
2022-10-21T13:57:19.592Z,17.40
2022-10-21T13:59:59.791Z,17.38
2022-10-21T14:02:27.255Z,17.33
2022-10-21T14:04:54.460Z,17.32
2022-10-21T14:07:21.929Z,17.27
2022-10-21T14:09:58.663Z,17.24
2022-10-21T14:12:43.918Z,17.19
2022-10-21T14:15:24.350Z,17.14
2022-10-21T14:17:58.026Z,17.07
2022-10-21T14:20:38.116Z,17.02
2022-10-21T14:23:16.053Z,16.98
2022-10-21T14:25:43.554Z,16.93
2022-10-21T14:28:13.880Z,16.90
2022-10-21T14:30:42.643Z,16.86
2022-10-21T14:33:17.872Z,16.83
2022-10-21T14:35:45.051Z,16.82
2022-10-21T14:38:38.841Z,16.81
2022-10-21T14:41:15.229Z,16.76
2022-10-21T14:43:45.772Z,16.72
2022-10-21T14:46:13.577Z,16.74
2022-10-21T14:48:59.753Z,16.74
2022-10-21T14:51:27.768Z,16.72
2022-10-21T14:53:59.416Z,16.72
2022-10-21T14:56:40.365Z,16.74
2022-10-21T14:59:25.583Z,16.71
2022-10-21T15:01:53.325Z,16.71
2022-10-21T15:04:51.349Z,16.68
2022-10-21T15:07:39.139Z,16.68
2022-10-21T15:10:07.164Z,16.68
2022-10-21T15:12:47.112Z,16.68
2022-10-21T15:15:54.272Z,16.70
2022-10-21T15:18:36.497Z,16.68
2022-10-21T15:21:05.648Z,16.67
2022-10-21T15:23:37.305Z,16.68
2022-10-21T15:26:21.359Z,16.66
2022-10-21T15:28:49.884Z,16.66
2022-10-21T15:31:29.153Z,16.65
2022-10-21T15:33:58.617Z,16.61
2022-10-21T15:36:25.865Z,16.60
2022-10-21T15:38:54.675Z,16.61
2022-10-21T15:41:25.450Z,16.59
2022-10-21T15:44:16.459Z,16.58
2022-10-21T15:46:46.939Z,16.54
2022-10-21T15:49:24.736Z,16.51
2022-10-21T15:51:52.194Z,16.51
2022-10-21T15:54:20.851Z,16.52
2022-10-21T15:56:52.973Z,16.51
2022-10-21T15:59:25.584Z,16.49
2022-10-21T16:01:54.180Z,16.44
2022-10-21T16:04:22.625Z,16.39
2022-10-21T16:06:52.230Z,16.35
2022-10-21T16:09:29.359Z,16.29
2022-10-21T16:12:00.500Z,16.26
2022-10-21T16:14:30.740Z,16.25
2022-10-21T16:16:59.544Z,16.19
2022-10-21T16:19:28.031Z,16.22
2022-10-21T16:21:55.999Z,16.20
2022-10-21T16:24:23.461Z,16.19
2022-10-21T16:26:50.907Z,16.16
2022-10-21T16:29:25.288Z,16.13
2022-10-21T16:31:53.586Z,16.15
2022-10-21T16:34:20.867Z,16.16
2022-10-21T16:36:48.214Z,16.16
2022-10-21T16:39:24.214Z,16.16
2022-10-21T16:41:52.308Z,16.14
2022-10-21T16:44:19.751Z,16.12
2022-10-21T16:46:55.174Z,16.10
2022-10-21T16:49:28.062Z,16.10
2022-10-21T16:51:57.460Z,16.09
2022-10-21T16:54:24.737Z,16.09
2022-10-21T16:56:55.014Z,16.07
2022-10-21T16:59:23.481Z,16.08
2022-10-21T17:01:51.516Z,16.07
2022-10-21T17:04:18.909Z,16.05
2022-10-21T17:06:46.157Z,16.05
2022-10-21T17:09:13.445Z,16.03
2022-10-21T17:11:42.461Z,16.03
2022-10-21T17:14:20.281Z,16.01
2022-10-21T17:16:47.787Z,16.02
2022-10-21T17:19:15.781Z,16.04
2022-10-21T17:21:44.008Z,16.04
2022-10-21T17:24:18.159Z,16.06
2022-10-21T17:26:45.704Z,16.05
2022-10-21T17:29:13.145Z,16.04
2022-10-21T17:31:42.799Z,16.04
2022-10-21T17:34:28.253Z,16.03
2022-10-21T17:36:55.815Z,16.03
2022-10-21T17:39:24.083Z,16.01
2022-10-21T17:41:51.502Z,16.02
2022-10-21T17:44:19.678Z,16.01
2022-10-21T17:46:49.325Z,16.01
2022-10-21T17:49:16.560Z,16.03
2022-10-21T17:51:43.720Z,16.04
2022-10-21T17:54:11.165Z,16.05
2022-10-21T17:56:38.392Z,16.07
2022-10-21T17:59:05.556Z,16.07
2022-10-21T18:01:32.912Z,16.07
2022-10-21T18:04:00.309Z,16.09
2022-10-21T18:06:28.057Z,16.10
2022-10-21T18:08:58.452Z,16.11
2022-10-21T18:11:26.143Z,16.13
2022-10-21T18:13:55.223Z,16.13
2022-10-21T18:16:24.093Z,16.13
2022-10-21T18:18:56.082Z,16.13
2022-10-21T18:21:25.792Z,16.14
2022-10-21T18:23:54.327Z,16.12
2022-10-21T18:26:29.349Z,16.10
2022-10-21T18:29:01.177Z,16.08
2022-10-21T18:31:33.322Z,16.06
2022-10-21T18:34:03.924Z,16.08
2022-10-21T18:36:32.551Z,16.08
2022-10-21T18:39:01.286Z,16.11
2022-10-21T18:41:28.578Z,16.14
2022-10-21T18:44:07.976Z,16.14
2022-10-21T18:46:39.956Z,16.15
2022-10-21T18:49:13.496Z,16.14
2022-10-21T18:51:41.403Z,16.09
2022-10-21T18:54:09.686Z,16.03
2022-10-21T18:56:37.100Z,15.99
2022-10-21T18:59:05.739Z,15.96
2022-10-21T19:01:33.034Z,15.94
2022-10-21T19:04:00.619Z,15.90
2022-10-21T19:06:46.208Z,15.92
2022-10-21T19:09:18.939Z,15.93
2022-10-21T19:11:47.568Z,15.96
2022-10-21T19:14:16.557Z,15.95
2022-10-21T19:16:46.825Z,15.97
2022-10-21T19:19:16.636Z,15.96
2022-10-21T19:21:51.684Z,15.96
2022-10-21T19:24:19.027Z,16.01
2022-10-21T19:26:58.144Z,16.00
2022-10-21T19:29:27.837Z,15.99
2022-10-21T19:31:56.834Z,16.01
2022-10-21T19:34:28.030Z,16.01
2022-10-21T19:36:55.375Z,16.03
2022-10-21T19:39:22.615Z,16.04
2022-10-21T19:41:49.896Z,16.02
2022-10-21T19:44:17.781Z,16.05
2022-10-21T19:46:45.422Z,16.04
2022-10-21T19:49:15.009Z,16.05
2022-10-21T19:51:42.904Z,16.05
2022-10-21T19:54:13.177Z,16.09
2022-10-21T19:56:41.179Z,16.10
2022-10-21T19:59:09.798Z,16.09
2022-10-21T20:01:40.258Z,16.09
2022-10-21T20:04:07.545Z,16.10
2022-10-21T20:06:37.681Z,16.09
2022-10-21T20:09:15.148Z,16.08
2022-10-21T20:11:43.002Z,16.10
2022-10-21T20:14:15.061Z,16.11
2022-10-21T20:16:43.514Z,16.09
2022-10-21T20:19:12.912Z,16.09
2022-10-21T20:21:43.603Z,16.11
2022-10-21T20:24:17.879Z,16.12
2022-10-21T20:26:49.959Z,16.12
2022-10-21T20:29:18.941Z,16.13
2022-10-21T20:31:48.530Z,16.13
2022-10-21T20:34:16.722Z,16.13
2022-10-21T20:36:44.890Z,16.14
2022-10-21T20:39:13.363Z,16.15
2022-10-21T20:41:40.720Z,16.15
2022-10-21T20:44:16.242Z,16.16
2022-10-21T20:46:45.308Z,16.15
2022-10-21T20:49:13.045Z,16.15
2022-10-21T20:51:44.283Z,16.15
2022-10-21T20:54:20.213Z,16.18
2022-10-21T20:56:47.467Z,16.18
2022-10-21T20:59:16.284Z,16.17
2022-10-21T21:01:46.798Z,16.18
2022-10-21T21:04:17.793Z,16.17
2022-10-21T21:06:50.156Z,16.15
2022-10-21T21:12:08.047Z,16.24
2022-10-21T21:14:35.280Z,16.25
2022-10-21T21:17:02.610Z,16.22
2022-10-21T21:19:29.867Z,16.24
2022-10-21T21:21:57.419Z,16.26
2022-10-21T21:24:25.816Z,16.27
2022-10-21T21:26:53.005Z,16.30
2022-10-21T21:29:20.220Z,16.28
2022-10-21T21:31:47.419Z,16.27
2022-10-21T21:34:14.939Z,16.26
2022-10-21T21:36:42.105Z,16.31
2022-10-21T21:39:10.995Z,16.32
2022-10-21T21:41:38.460Z,16.33
2022-10-21T21:44:06.212Z,16.32
2022-10-21T21:46:33.700Z,16.32
2022-10-21T21:49:06.113Z,16.31
2022-10-21T21:51:36.581Z,16.31
2022-10-21T21:54:07.579Z,16.32
2022-10-21T21:56:35.577Z,16.36
2022-10-21T21:59:02.976Z,16.35
2022-10-21T22:01:30.401Z,16.34
2022-10-21T22:03:58.501Z,16.35
2022-10-21T22:06:32.218Z,16.35
2022-10-21T22:09:01.462Z,16.38
2022-10-21T22:11:32.601Z,16.40
2022-10-21T22:14:00.360Z,16.38
2022-10-21T22:16:30.158Z,16.39
2022-10-21T22:19:00.624Z,16.40
2022-10-21T22:21:30.226Z,16.42
2022-10-21T22:23:57.785Z,16.44
2022-10-21T22:26:26.828Z,16.45
2022-10-21T22:28:54.682Z,16.43
2022-10-21T22:31:27.343Z,16.45
2022-10-21T22:34:00.823Z,16.47
2022-10-21T22:36:28.783Z,16.50
2022-10-21T22:38:56.080Z,16.51
2022-10-21T22:41:23.333Z,16.54
2022-10-21T22:43:50.509Z,16.53
2022-10-21T22:46:34.602Z,16.51
2022-10-21T22:49:05.835Z,16.57
2022-10-21T22:51:34.140Z,16.58
2022-10-21T22:54:01.692Z,16.59
2022-10-21T22:56:28.976Z,16.56
2022-10-21T22:58:57.463Z,16.57
2022-10-21T23:01:30.120Z,16.61
2022-10-21T23:04:04.050Z,16.62
2022-10-21T23:06:34.428Z,16.64
2022-10-21T23:09:04.247Z,16.61
2022-10-21T23:11:31.789Z,16.62
2022-10-21T23:14:03.452Z,16.64
2022-10-21T23:16:37.057Z,16.64
2022-10-21T23:19:07.956Z,16.63
2022-10-21T23:21:36.831Z,16.66
2022-10-21T23:24:05.467Z,16.67
2022-10-21T23:26:32.917Z,16.64
2022-10-21T23:29:00.193Z,16.66
2022-10-21T23:31:27.512Z,16.67
2022-10-21T23:33:54.737Z,16.67
2022-10-21T23:36:22.025Z,16.67
2022-10-21T23:38:49.417Z,16.70
2022-10-21T23:41:16.670Z,16.70
2022-10-21T23:43:43.998Z,16.68
2022-10-21T23:46:11.283Z,16.66
2022-10-21T23:48:38.601Z,16.67
2022-10-21T23:51:06.221Z,16.64
2022-10-21T23:53:33.598Z,16.64
2022-10-21T23:56:00.849Z,16.61
2022-10-21T23:58:28.171Z,16.63
